createdAt,value
2019-03-15T00:03:21.309Z,5.45
2019-03-15T00:09:16.302Z,5.29
2019-03-15T00:15:11.303Z,5.8
2019-03-15T00:21:06.303Z,5.24
2019-03-15T00:27:01.311Z,4.87
2019-03-15T00:32:56.334Z,4.28
2019-03-15T00:38:51.336Z,4.57
2019-03-15T00:44:46.334Z,4.65
2019-03-15T00:50:41.330Z,5.55
2019-03-15T00:56:36.330Z,4.69
2019-03-15T01:02:31.388Z,4.23
2019-03-15T01:08:26.352Z,4.58
2019-03-15T01:14:21.331Z,4.67
2019-03-15T01:20:16.372Z,4.24
2019-03-15T01:26:11.438Z,4.49
2019-03-15T01:32:06.356Z,4.71
2019-03-15T01:38:01.357Z,5.23
2019-03-15T01:43:56.369Z,4.28
2019-03-15T01:49:51.343Z,4.75
2019-03-15T01:55:46.405Z,5.87
2019-03-15T02:01:41.408Z,5.32
2019-03-15T02:07:36.418Z,4.49
2019-03-15T02:13:31.364Z,4.6
2019-03-15T02:19:26.366Z,4.21
2019-03-15T02:25:21.380Z,4.77
2019-03-15T02:31:16.399Z,4.92
2019-03-15T02:37:11.389Z,5.56
2019-03-15T02:43:06.425Z,5.81
2019-03-15T02:49:01.398Z,6.19
2019-03-15T02:54:56.404Z,5.91
2019-03-15T03:00:51.408Z,5.72
2019-03-15T03:06:46.424Z,19.37
2019-03-15T03:12:41.403Z,4.98
2019-03-15T03:18:36.431Z,5.29
2019-03-15T03:24:31.415Z,5.13
2019-03-15T03:30:26.427Z,4.48
2019-03-15T03:36:21.436Z,5.92
2019-03-15T03:42:16.610Z,5.96
2019-03-15T03:48:11.434Z,6.31
2019-03-15T03:54:06.434Z,4.89
2019-03-15T04:00:01.486Z,4.64
2019-03-15T04:05:56.430Z,4.49
2019-03-15T04:11:55.536Z,4.32
2019-03-15T04:17:46.453Z,4.42
2019-03-15T04:23:41.472Z,5.17
2019-03-15T04:29:36.623Z,5.23
2019-03-15T04:35:31.494Z,5.47
2019-03-15T04:41:26.456Z,5.9
2019-03-15T04:47:21.542Z,4.78
2019-03-15T04:53:16.564Z,4.99
2019-03-15T04:59:11.462Z,4.87
2019-03-15T05:05:06.496Z,3.93
2019-03-15T05:11:01.521Z,5.22
2019-03-15T05:16:56.474Z,6.28
2019-03-15T05:22:51.492Z,5.66
2019-03-15T05:28:46.492Z,6.29
2019-03-15T05:34:41.495Z,5.05
2019-03-15T05:40:36.518Z,5.39
2019-03-15T05:46:31.536Z,5.64
2019-03-15T05:52:26.535Z,5.6
2019-03-15T05:58:21.879Z,4.94
2019-03-15T06:04:16.598Z,4.73
2019-03-15T06:10:11.529Z,4.28
2019-03-15T06:16:06.522Z,4.3
2019-03-15T06:22:01.610Z,6.17
2019-03-15T06:27:56.516Z,7.53
2019-03-15T06:33:51.510Z,7.92
2019-03-15T06:39:46.522Z,8.71
2019-03-15T06:45:42.001Z,8.54
2019-03-15T06:51:36.585Z,9.06
2019-03-15T06:57:32.215Z,8.55
2019-03-15T07:03:26.554Z,8.36
2019-03-15T07:09:21.602Z,8.83
2019-03-15T07:15:16.547Z,8.69
2019-03-15T07:21:11.544Z,7.73
2019-03-15T07:27:12.476Z,7.24
2019-03-15T07:33:01.575Z,6.44
2019-03-15T07:38:56.573Z,7.03
2019-03-15T07:44:51.608Z,7.07
2019-03-15T07:50:46.571Z,7.38
2019-03-15T07:56:41.588Z,6.85
2019-03-15T08:02:36.579Z,7.36
2019-03-15T08:08:31.741Z,7.89
2019-03-15T08:14:26.595Z,8.02
2019-03-15T08:20:21.577Z,8.36
2019-03-15T08:26:16.618Z,10
2019-03-15T08:32:11.620Z,8.74
2019-03-15T08:38:06.595Z,9.27
2019-03-15T08:44:01.622Z,7.64
2019-03-15T08:49:56.634Z,7.31
2019-03-15T08:55:51.638Z,8.87
2019-03-15T09:01:46.619Z,8.09
2019-03-15T09:07:41.638Z,8.63
2019-03-15T09:13:36.666Z,6.46
2019-03-15T09:19:31.627Z,6.2
2019-03-15T09:25:26.628Z,6.16
2019-03-15T09:31:21.623Z,5.64
2019-03-15T09:37:16.617Z,5.27
2019-03-15T09:43:11.642Z,5.58
2019-03-15T09:49:06.708Z,5.71
2019-03-15T09:55:01.658Z,5.6
2019-03-15T10:00:57.056Z,5.2
2019-03-15T10:06:51.655Z,5.15
2019-03-15T10:12:46.667Z,5.01
2019-03-15T10:18:41.697Z,5.86
2019-03-15T10:24:36.663Z,17.74
2019-03-15T10:30:31.669Z,6.22
2019-03-15T10:36:26.690Z,5.85
2019-03-15T10:42:21.715Z,5.65
2019-03-15T10:48:24.826Z,5.26
2019-03-15T10:54:11.688Z,5.32
2019-03-15T11:00:06.681Z,5.49
2019-03-15T11:06:01.705Z,5.19
2019-03-15T11:11:56.715Z,6.28
2019-03-15T11:17:51.714Z,7.32
2019-03-15T11:23:46.717Z,5.58
2019-03-15T11:29:41.709Z,4.78
2019-03-15T11:35:36.727Z,4.94
2019-03-15T11:41:31.727Z,3.83
2019-03-15T11:47:26.736Z,4.31
2019-03-15T11:53:21.721Z,4.1
2019-03-15T11:59:16.723Z,5.46
2019-03-15T12:05:11.751Z,4.23
2019-03-15T12:11:06.762Z,4.6
2019-03-15T12:17:01.785Z,3.66
2019-03-15T12:22:56.761Z,4.32
2019-03-15T12:28:51.741Z,4.27
2019-03-15T12:34:46.764Z,3.06
2019-03-15T12:40:41.780Z,2.51
2019-03-15T12:46:36.773Z,2.45
2019-03-15T12:52:31.777Z,2.86
2019-03-15T12:58:26.790Z,2.77
2019-03-15T13:04:21.803Z,2.56
2019-03-15T13:10:16.805Z,2.39
2019-03-15T13:16:11.797Z,2.45
2019-03-15T13:22:06.799Z,2.5
2019-03-15T13:28:01.779Z,2.2
2019-03-15T13:33:56.805Z,1.91
2019-03-15T13:39:51.794Z,2.51
2019-03-15T13:45:46.831Z,2.15
2019-03-15T13:51:41.848Z,2.53
2019-03-15T13:57:36.816Z,2.32
2019-03-15T14:03:31.843Z,2.86
2019-03-15T14:09:26.807Z,2.35
2019-03-15T14:15:21.871Z,2.41
2019-03-15T14:21:16.812Z,2.37
2019-03-15T14:27:11.837Z,2.39
2019-03-15T14:33:06.811Z,2.95
2019-03-15T14:39:01.956Z,2.37
2019-03-15T14:44:56.879Z,2.36
2019-03-15T14:50:51.851Z,2.51
2019-03-15T14:56:46.853Z,2.6
2019-03-15T15:02:41.838Z,2.19
2019-03-15T15:08:36.864Z,2.61
2019-03-15T15:14:31.856Z,2.42
2019-03-15T15:20:26.838Z,3.77
2019-03-15T15:26:21.857Z,3.42
2019-03-15T15:32:16.879Z,2.34
2019-03-15T15:38:11.913Z,2.11
2019-03-15T15:44:06.876Z,1.83
2019-03-15T15:50:01.894Z,1.97
2019-03-15T15:55:56.859Z,2.18
2019-03-15T16:01:51.895Z,2.17
2019-03-15T16:07:46.876Z,2.3
2019-03-15T16:13:41.881Z,2.67
2019-03-15T16:19:36.904Z,2.37
2019-03-15T16:25:31.900Z,2.82
2019-03-15T16:31:26.902Z,2.55
2019-03-15T16:37:21.898Z,2.46
2019-03-15T16:43:16.903Z,2.23
2019-03-15T16:49:11.919Z,3.86
2019-03-15T16:55:06.917Z,2.42
2019-03-15T17:01:01.914Z,2.73
2019-03-15T17:06:56.909Z,2.38
2019-03-15T17:12:51.936Z,2.71
2019-03-15T17:18:46.920Z,2.47
2019-03-15T17:24:41.908Z,3.4
2019-03-15T17:30:36.924Z,2.44
2019-03-15T17:36:31.953Z,3.17
2019-03-15T17:42:26.951Z,2.89
2019-03-15T17:48:21.976Z,2.93
2019-03-15T17:54:16.947Z,2.62
2019-03-15T18:00:11.976Z,3.6
2019-03-15T18:06:06.960Z,4.23
2019-03-15T18:12:01.960Z,3.54
2019-03-15T18:17:59.742Z,3.55
2019-03-15T18:23:51.997Z,4.07
2019-03-15T18:29:46.987Z,3.6
2019-03-15T18:35:41.962Z,3.88
2019-03-15T18:41:36.958Z,2.81
2019-03-15T18:47:31.998Z,3.8
2019-03-15T18:53:27.074Z,3.31
2019-03-15T18:59:21.987Z,3.52
2019-03-15T19:05:16.972Z,3.86
2019-03-15T19:11:11.999Z,3.89
2019-03-15T19:17:07.021Z,3.48
2019-03-15T19:23:01.990Z,4.48
2019-03-15T19:28:56.993Z,4.41
2019-03-15T19:34:52.005Z,4.33
2019-03-15T19:40:47.015Z,3.87
2019-03-15T19:46:42.048Z,5.04
2019-03-15T19:52:37.014Z,5.19
2019-03-15T19:58:32.017Z,5.75
2019-03-15T20:04:27.089Z,5.2
2019-03-15T20:10:22.033Z,3.59
2019-03-15T20:16:17.037Z,3.71
2019-03-15T20:22:12.049Z,3.96
2019-03-15T20:28:07.046Z,3.49
2019-03-15T20:34:02.044Z,4.67
2019-03-15T20:39:57.073Z,4.03
2019-03-15T20:45:52.138Z,3.41
2019-03-15T20:51:47.068Z,3.55
2019-03-15T20:57:42.062Z,4.12
2019-03-15T21:03:37.057Z,5.08
2019-03-15T21:09:32.070Z,4.54
2019-03-15T21:15:27.123Z,4.37
2019-03-15T21:21:22.083Z,4.05
2019-03-15T21:27:17.098Z,4.63
2019-03-15T21:33:12.119Z,4.84
2019-03-15T21:39:07.069Z,4.57
2019-03-15T21:45:02.069Z,5.26
2019-03-15T21:50:57.084Z,4.94
2019-03-15T21:56:52.092Z,5.04
2019-03-15T22:02:47.103Z,5.13
2019-03-15T22:08:42.134Z,4.28
2019-03-15T22:14:37.108Z,4.53
2019-03-15T22:20:32.119Z,5.11
2019-03-15T22:26:27.115Z,5.45
2019-03-15T22:32:22.139Z,3.92
2019-03-15T22:38:25.909Z,4.9
2019-03-15T22:44:12.126Z,3.88
2019-03-15T22:50:07.144Z,4.3
2019-03-15T22:56:02.163Z,3.84
2019-03-15T23:01:57.131Z,5.63
2019-03-15T23:07:52.222Z,4.22
2019-03-15T23:13:47.121Z,4.06
2019-03-15T23:19:42.147Z,3.84
2019-03-15T23:25:37.302Z,4.38
2019-03-15T23:31:42.846Z,3.76
2019-03-15T23:37:27.158Z,4.26
2019-03-15T23:43:22.179Z,4.11
2019-03-15T23:49:17.186Z,3.53
2019-03-15T23:55:12.168Z,4.26
